createdAt,value
2019-01-17T00:00:29.894Z,939.09
2019-01-17T00:01:29.851Z,939.11
2019-01-17T00:02:29.789Z,939.12
2019-01-17T00:03:29.781Z,939.14
2019-01-17T00:04:29.773Z,939.16
2019-01-17T00:05:29.758Z,939.16
2019-01-17T00:06:29.750Z,939.17
2019-01-17T00:07:29.725Z,939.19
2019-01-17T00:08:29.726Z,939.17
2019-01-17T00:09:29.713Z,939.16
2019-01-17T00:10:29.701Z,939.19
2019-01-17T00:11:29.689Z,939.15
2019-01-17T00:12:29.675Z,939.14
2019-01-17T00:13:29.661Z,939.12
2019-01-17T00:14:29.657Z,939.16
2019-01-17T00:15:29.643Z,939.11
2019-01-17T00:16:29.633Z,939.12
2019-01-17T00:17:29.637Z,939.12
2019-01-17T00:18:29.612Z,939.13
2019-01-17T00:19:29.612Z,939.15
2019-01-17T00:20:29.592Z,939.17
2019-01-17T00:21:29.575Z,939.17
2019-01-17T00:22:29.556Z,939.15
2019-01-17T00:23:29.555Z,939.16
2019-01-17T00:24:29.541Z,939.09
2019-01-17T00:25:29.553Z,939.06
2019-01-17T00:26:29.568Z,939.10
2019-01-17T00:27:29.498Z,939.07
2019-01-17T00:28:29.498Z,939.09
2019-01-17T00:29:29.482Z,939.09
2019-01-17T00:30:29.474Z,939.07
2019-01-17T00:31:29.462Z,939.06
2019-01-17T00:32:29.450Z,939.13
2019-01-17T00:33:29.441Z,939.09
2019-01-17T00:34:29.421Z,939.07
2019-01-17T00:35:29.423Z,939.10
2019-01-17T00:36:29.411Z,939.11
2019-01-17T00:37:29.396Z,939.09
2019-01-17T00:38:29.371Z,939.15
2019-01-17T00:39:29.369Z,939.14
2019-01-17T00:40:29.359Z,939.15
2019-01-17T00:41:29.349Z,939.11
2019-01-17T00:42:29.334Z,939.17
2019-01-17T00:43:29.324Z,939.06
2019-01-17T00:44:29.314Z,939.08
2019-01-17T00:45:29.299Z,939.12
2019-01-17T00:46:29.287Z,939.14
2019-01-17T00:47:29.282Z,939.09
2019-01-17T00:48:29.289Z,939.12
2019-01-17T00:49:29.254Z,939.07
2019-01-17T00:50:29.244Z,939.07
2019-01-17T00:51:29.276Z,939.21
2019-01-17T00:52:29.250Z,939.15
2019-01-17T00:53:29.205Z,939.17
2019-01-17T00:54:29.188Z,939.19
2019-01-17T00:55:29.184Z,939.20
2019-01-17T00:56:29.174Z,939.17
2019-01-17T00:57:29.159Z,939.16
2019-01-17T00:58:29.147Z,939.19
2019-01-17T00:59:29.129Z,939.19
2019-01-17T01:00:29.122Z,939.13
2019-01-17T01:01:29.111Z,939.18
2019-01-17T01:02:29.093Z,939.19
2019-01-17T01:03:29.086Z,939.17
2019-01-17T01:04:29.075Z,939.17
2019-01-17T01:05:29.067Z,939.16
2019-01-17T01:06:29.076Z,939.17
2019-01-17T01:07:29.038Z,939.25
2019-01-17T01:08:29.027Z,939.20
2019-01-17T01:09:29.014Z,939.22
2019-01-17T01:10:29.005Z,939.17
2019-01-17T01:11:28.991Z,939.22
2019-01-17T01:12:28.973Z,939.24
2019-01-17T01:13:28.968Z,939.21
2019-01-17T01:14:28.952Z,939.14
2019-01-17T01:15:28.937Z,939.14
2019-01-17T01:16:28.932Z,939.15
2019-01-17T01:17:28.910Z,939.20
2019-01-17T01:18:28.901Z,939.22
2019-01-17T01:19:28.896Z,939.23
2019-01-17T01:20:28.884Z,939.23
2019-01-17T01:21:28.874Z,939.27
2019-01-17T01:22:28.876Z,939.27
2019-01-17T01:23:28.849Z,939.25
2019-01-17T01:24:28.838Z,939.23
2019-01-17T01:25:28.826Z,939.19
2019-01-17T01:26:28.816Z,939.22
2019-01-17T01:27:28.815Z,939.24
2019-01-17T01:28:28.791Z,939.22
2019-01-17T01:29:28.822Z,939.21
2019-01-17T01:30:28.764Z,939.27
2019-01-17T01:31:28.754Z,939.34
2019-01-17T01:32:28.744Z,939.28
2019-01-17T01:33:28.735Z,939.29
2019-01-17T01:34:28.721Z,939.27
2019-01-17T01:35:28.710Z,939.30
2019-01-17T01:36:28.698Z,939.29
2019-01-17T01:37:28.687Z,939.32
2019-01-17T01:38:28.676Z,939.29
2019-01-17T01:39:28.652Z,939.34
2019-01-17T01:40:28.651Z,939.38
2019-01-17T01:41:28.641Z,939.33
2019-01-17T01:42:31.207Z,939.37
2019-01-17T01:43:28.620Z,939.34
2019-01-17T01:44:28.604Z,939.40
2019-01-17T01:45:28.594Z,939.46
2019-01-17T01:46:28.585Z,939.44
2019-01-17T01:47:28.566Z,939.46
2019-01-17T01:48:28.563Z,939.47
2019-01-17T01:49:28.547Z,939.47
2019-01-17T01:50:28.532Z,939.43
2019-01-17T01:51:28.531Z,939.48
2019-01-17T01:52:28.515Z,939.46
2019-01-17T01:53:28.508Z,939.49
2019-01-17T01:54:28.494Z,939.47
2019-01-17T01:55:28.485Z,939.45
2019-01-17T01:56:28.474Z,939.53
2019-01-17T01:57:28.457Z,939.56
2019-01-17T01:58:28.449Z,939.52
2019-01-17T01:59:28.437Z,939.55
2019-01-17T02:00:28.419Z,939.46
2019-01-17T02:01:28.417Z,939.52
2019-01-17T02:02:28.404Z,939.49
2019-01-17T02:03:28.394Z,939.46
2019-01-17T02:04:28.383Z,939.46
2019-01-17T02:05:28.380Z,939.51
2019-01-17T02:06:28.375Z,939.48
2019-01-17T02:07:28.354Z,939.48
2019-01-17T02:08:28.339Z,939.48
2019-01-17T02:09:28.328Z,939.44
2019-01-17T02:10:28.316Z,939.42
2019-01-17T02:11:28.305Z,939.45
2019-01-17T02:12:28.320Z,939.48
2019-01-17T02:13:28.284Z,939.52
2019-01-17T02:14:28.273Z,939.48
2019-01-17T02:15:28.264Z,939.43
2019-01-17T02:16:28.251Z,939.44
2019-01-17T02:17:28.239Z,939.43
2019-01-17T02:18:28.231Z,939.46
2019-01-17T02:19:28.219Z,939.42
2019-01-17T02:20:28.202Z,939.46
2019-01-17T02:21:28.200Z,939.45
2019-01-17T02:22:28.188Z,939.43
2019-01-17T02:23:28.176Z,939.45
2019-01-17T02:24:28.662Z,939.47
2019-01-17T02:25:28.153Z,939.44
2019-01-17T02:26:28.146Z,939.49
2019-01-17T02:27:28.134Z,939.45
2019-01-17T02:28:28.123Z,939.50
2019-01-17T02:29:28.111Z,939.44
2019-01-17T02:30:28.104Z,939.46
2019-01-17T02:31:28.097Z,939.46
2019-01-17T02:32:28.139Z,939.48
2019-01-17T02:33:28.073Z,939.42
2019-01-17T02:34:28.060Z,939.44
2019-01-17T02:35:28.049Z,939.44
2019-01-17T02:36:28.036Z,939.40
2019-01-17T02:37:28.030Z,939.39
2019-01-17T02:38:28.017Z,939.43
2019-01-17T02:39:28.014Z,939.46
2019-01-17T02:40:27.999Z,939.34
2019-01-17T02:41:27.988Z,939.37
2019-01-17T02:42:27.977Z,939.38
2019-01-17T02:43:27.962Z,939.39
2019-01-17T02:44:27.954Z,939.39
2019-01-17T02:45:27.962Z,939.40
2019-01-17T02:46:27.932Z,939.41
2019-01-17T02:47:27.924Z,939.38
2019-01-17T02:48:27.909Z,939.35
2019-01-17T02:49:27.903Z,939.50
2019-01-17T02:50:27.892Z,939.41
2019-01-17T02:51:27.884Z,939.40
2019-01-17T02:52:27.870Z,939.39
2019-01-17T02:53:27.861Z,939.39
2019-01-17T02:54:27.850Z,939.42
2019-01-17T02:55:27.843Z,939.41
2019-01-17T02:56:27.832Z,939.38
2019-01-17T02:57:27.820Z,939.39
2019-01-17T02:58:27.808Z,939.38
2019-01-17T02:59:27.795Z,939.30
2019-01-17T03:00:27.784Z,939.26
2019-01-17T03:01:27.785Z,939.23
2019-01-17T03:02:27.780Z,939.24
2019-01-17T03:03:27.756Z,939.20
2019-01-17T03:04:27.748Z,939.18
2019-01-17T03:05:27.735Z,939.21
2019-01-17T03:06:27.720Z,939.25
2019-01-17T03:07:27.713Z,939.21
2019-01-17T03:08:27.703Z,939.19
2019-01-17T03:09:27.694Z,939.18
2019-01-17T03:10:27.684Z,939.21
2019-01-17T03:11:27.672Z,939.19
2019-01-17T03:12:27.659Z,939.22
2019-01-17T03:13:27.651Z,939.24
2019-01-17T03:14:27.642Z,939.20
2019-01-17T03:15:27.630Z,939.22
2019-01-17T03:16:27.619Z,939.23
2019-01-17T03:17:27.607Z,939.25
2019-01-17T03:18:27.607Z,939.28
2019-01-17T03:19:27.586Z,939.24
2019-01-17T03:20:27.579Z,939.22
2019-01-17T03:21:27.566Z,939.17
2019-01-17T03:22:27.597Z,939.15
2019-01-17T03:23:27.582Z,939.21
2019-01-17T03:24:27.548Z,939.22
2019-01-17T03:25:27.532Z,939.19
2019-01-17T03:26:27.522Z,939.22
2019-01-17T03:27:27.503Z,939.26
2019-01-17T03:28:27.490Z,939.25
2019-01-17T03:29:27.487Z,939.29
2019-01-17T03:30:27.471Z,939.21
2019-01-17T03:31:27.464Z,939.27
2019-01-17T03:32:27.450Z,939.32
2019-01-17T03:33:27.441Z,939.29
2019-01-17T03:34:27.429Z,939.30
2019-01-17T03:35:27.416Z,939.28
2019-01-17T03:36:27.406Z,939.26
2019-01-17T03:37:27.396Z,939.29
2019-01-17T03:38:27.384Z,939.32
2019-01-17T03:39:27.376Z,939.30
2019-01-17T03:40:27.377Z,939.28
2019-01-17T03:41:27.352Z,939.25
2019-01-17T03:42:27.340Z,939.31
2019-01-17T03:43:27.330Z,939.31
2019-01-17T03:44:27.324Z,939.31
2019-01-17T03:45:27.315Z,939.29
2019-01-17T03:46:27.295Z,939.25
2019-01-17T03:47:27.288Z,939.23
2019-01-17T03:48:27.283Z,939.29
2019-01-17T03:49:27.269Z,939.27
2019-01-17T03:50:27.257Z,939.20
2019-01-17T03:51:27.246Z,939.21
2019-01-17T03:52:27.237Z,939.20
2019-01-17T03:53:27.224Z,939.18
2019-01-17T03:54:27.211Z,939.16
2019-01-17T03:55:27.203Z,939.15
2019-01-17T03:56:27.192Z,939.10
2019-01-17T03:57:27.182Z,939.12
2019-01-17T03:58:27.164Z,939.16
2019-01-17T03:59:27.151Z,939.15
2019-01-17T04:00:27.155Z,939.10
2019-01-17T04:01:27.144Z,939.15
2019-01-17T04:02:27.128Z,939.07
2019-01-17T04:03:27.116Z,939.12
2019-01-17T04:04:27.105Z,939.12
2019-01-17T04:05:27.094Z,939.14
2019-01-17T04:06:27.084Z,939.10
2019-01-17T04:07:27.072Z,939.10
2019-01-17T04:08:27.066Z,939.09
2019-01-17T04:09:27.054Z,939.11
2019-01-17T04:10:27.043Z,939.13
2019-01-17T04:11:27.031Z,939.09
2019-01-17T04:12:27.023Z,939.10
2019-01-17T04:13:27.065Z,939.09
2019-01-17T04:14:29.396Z,939.10
2019-01-17T04:15:26.988Z,939.08
2019-01-17T04:16:26.979Z,939.06
2019-01-17T04:17:26.968Z,939.03
2019-01-17T04:18:26.958Z,939.01
2019-01-17T04:19:26.946Z,939.04
2019-01-17T04:20:26.939Z,939.00
2019-01-17T04:21:26.927Z,938.99
2019-01-17T04:22:26.915Z,938.89
2019-01-17T04:23:26.904Z,938.93
2019-01-17T04:24:26.892Z,938.94
2019-01-17T04:25:26.883Z,938.92
2019-01-17T04:26:26.872Z,938.94
2019-01-17T04:27:26.865Z,938.91
2019-01-17T04:28:26.886Z,938.91
2019-01-17T04:29:26.840Z,938.90
2019-01-17T04:30:26.831Z,938.93
2019-01-17T04:31:26.818Z,938.93
2019-01-17T04:32:26.808Z,938.92
2019-01-17T04:33:26.828Z,938.89
2019-01-17T04:34:26.786Z,938.89
2019-01-17T04:35:26.774Z,938.87
2019-01-17T04:36:26.764Z,938.89
2019-01-17T04:37:26.756Z,938.86
2019-01-17T04:38:26.742Z,938.85
2019-01-17T04:39:26.738Z,938.89
2019-01-17T04:40:26.716Z,938.85
2019-01-17T04:41:26.708Z,938.86
2019-01-17T04:42:26.699Z,938.82
2019-01-17T04:43:26.692Z,938.81
2019-01-17T04:44:26.680Z,938.79
2019-01-17T04:45:26.669Z,938.78
2019-01-17T04:46:26.658Z,938.74
2019-01-17T04:47:26.650Z,938.74
2019-01-17T04:48:26.638Z,938.73
2019-01-17T04:49:26.629Z,938.72
2019-01-17T04:50:26.617Z,938.75
2019-01-17T04:51:26.607Z,938.69
2019-01-17T04:52:26.600Z,938.73
2019-01-17T04:53:26.588Z,938.75
2019-01-17T04:54:26.574Z,938.73
2019-01-17T04:55:26.564Z,938.74
2019-01-17T04:56:26.546Z,938.70
2019-01-17T04:57:26.546Z,938.73
2019-01-17T04:58:26.533Z,938.73
2019-01-17T04:59:26.520Z,938.68
2019-01-17T05:00:26.509Z,938.64
2019-01-17T05:01:26.505Z,938.65
2019-01-17T05:02:26.482Z,938.71
2019-01-17T05:03:26.477Z,938.66
2019-01-17T05:04:29.062Z,938.66
2019-01-17T05:05:26.454Z,938.62
2019-01-17T05:06:26.444Z,938.63
2019-01-17T05:07:26.432Z,938.63
2019-01-17T05:08:26.425Z,938.59
2019-01-17T05:09:26.413Z,938.59
2019-01-17T05:10:26.390Z,938.62
2019-01-17T05:11:26.390Z,938.61
2019-01-17T05:12:26.378Z,938.64
2019-01-17T05:13:26.368Z,938.55
2019-01-17T05:14:26.357Z,938.61
2019-01-17T05:15:26.350Z,938.59
2019-01-17T05:16:26.338Z,938.57
2019-01-17T05:17:26.328Z,938.55
2019-01-17T05:18:26.318Z,938.54
2019-01-17T05:19:26.303Z,938.52
2019-01-17T05:20:26.293Z,938.48
2019-01-17T05:21:26.283Z,938.53
2019-01-17T05:22:26.272Z,938.53
2019-01-17T05:23:26.263Z,938.49
2019-01-17T05:24:26.242Z,938.49
2019-01-17T05:25:26.241Z,938.45
2019-01-17T05:26:26.225Z,938.45
2019-01-17T05:27:26.219Z,938.47
2019-01-17T05:28:26.208Z,938.50
2019-01-17T05:29:26.209Z,938.49
2019-01-17T05:30:26.186Z,938.52
2019-01-17T05:31:26.173Z,938.50
2019-01-17T05:32:26.165Z,938.46
2019-01-17T05:33:26.148Z,938.49
2019-01-17T05:34:26.143Z,938.47
2019-01-17T05:35:26.119Z,938.46
2019-01-17T05:36:26.141Z,938.48
2019-01-17T05:37:26.108Z,938.46
2019-01-17T05:38:26.101Z,938.43
2019-01-17T05:39:26.086Z,938.48
2019-01-17T05:40:26.075Z,938.45
2019-01-17T05:41:26.064Z,938.46
2019-01-17T05:42:26.051Z,938.46
2019-01-17T05:43:26.041Z,938.41
2019-01-17T05:44:26.030Z,938.44
2019-01-17T05:45:26.019Z,938.41
2019-01-17T05:46:26.007Z,938.35
2019-01-17T05:47:25.999Z,938.35
2019-01-17T05:48:25.984Z,938.32
2019-01-17T05:49:25.978Z,938.24
2019-01-17T05:50:25.965Z,938.29
2019-01-17T05:51:25.952Z,938.25
2019-01-17T05:52:25.933Z,938.23
2019-01-17T05:53:25.921Z,938.26
2019-01-17T05:54:28.270Z,938.27
2019-01-17T05:55:25.908Z,938.24
2019-01-17T05:56:25.896Z,938.25
2019-01-17T05:57:25.889Z,938.25
2019-01-17T05:58:25.873Z,938.28
2019-01-17T05:59:25.862Z,938.23
2019-01-17T06:00:25.852Z,938.22
2019-01-17T06:01:25.842Z,938.21
2019-01-17T06:02:25.830Z,938.16
2019-01-17T06:03:25.823Z,938.16
2019-01-17T06:04:25.808Z,938.12
2019-01-17T06:05:25.802Z,938.13
2019-01-17T06:06:25.787Z,938.14
2019-01-17T06:07:25.776Z,938.14
2019-01-17T06:08:25.763Z,938.16
2019-01-17T06:09:25.753Z,938.20
2019-01-17T06:10:25.730Z,938.19
2019-01-17T06:11:25.733Z,938.18
2019-01-17T06:12:25.729Z,938.11
2019-01-17T06:13:25.710Z,938.09
2019-01-17T06:14:25.696Z,938.07
2019-01-17T06:15:25.684Z,938.09
2019-01-17T06:16:25.673Z,938.08
2019-01-17T06:17:25.666Z,938.10
2019-01-17T06:18:25.652Z,938.13
2019-01-17T06:19:25.645Z,938.11
2019-01-17T06:20:25.631Z,938.09
2019-01-17T06:21:25.620Z,938.09
2019-01-17T06:22:25.609Z,938.06
2019-01-17T06:23:25.599Z,938.05
2019-01-17T06:24:25.587Z,938.03
2019-01-17T06:25:28.149Z,937.99
2019-01-17T06:26:25.564Z,938.01
2019-01-17T06:27:25.564Z,938.03
2019-01-17T06:28:25.555Z,938.03
2019-01-17T06:29:25.555Z,938.00
2019-01-17T06:30:25.527Z,937.98
2019-01-17T06:31:25.503Z,937.98
2019-01-17T06:32:25.501Z,937.97
2019-01-17T06:33:25.489Z,937.94
2019-01-17T06:34:25.509Z,937.94
2019-01-17T06:35:25.466Z,937.89
2019-01-17T06:36:25.457Z,937.95
2019-01-17T06:37:25.447Z,937.84
2019-01-17T06:38:25.436Z,937.96
2019-01-17T06:39:25.423Z,937.91
2019-01-17T06:40:25.416Z,937.86
2019-01-17T06:41:25.403Z,937.87
2019-01-17T06:42:25.388Z,937.86
2019-01-17T06:43:25.378Z,937.86
2019-01-17T06:44:25.368Z,937.87
2019-01-17T06:45:25.361Z,937.85
2019-01-17T06:46:25.352Z,937.84
2019-01-17T06:47:25.335Z,937.82
2019-01-17T06:48:25.325Z,937.78
2019-01-17T06:49:25.303Z,937.79
2019-01-17T06:50:25.302Z,937.80
2019-01-17T06:51:25.293Z,937.74
2019-01-17T06:52:25.284Z,937.68
2019-01-17T06:53:25.273Z,937.70
2019-01-17T06:54:25.258Z,937.69
2019-01-17T06:55:25.250Z,937.72
2019-01-17T06:56:25.238Z,937.77
2019-01-17T06:57:25.229Z,937.75
2019-01-17T06:58:25.218Z,937.73
2019-01-17T06:59:25.209Z,937.76
2019-01-17T07:00:25.200Z,937.79
2019-01-17T07:01:25.190Z,937.78
2019-01-17T07:02:25.182Z,937.71
2019-01-17T07:03:25.168Z,937.74
2019-01-17T07:04:25.158Z,937.77
2019-01-17T07:05:25.148Z,937.69
2019-01-17T07:06:25.772Z,937.65
2019-01-17T07:07:25.130Z,937.64
2019-01-17T07:08:25.112Z,937.64
2019-01-17T07:09:25.105Z,937.55
2019-01-17T07:10:25.091Z,937.56
2019-01-17T07:11:25.076Z,937.64
2019-01-17T07:12:25.081Z,937.65
2019-01-17T07:13:25.055Z,937.62
2019-01-17T07:14:25.050Z,937.56
2019-01-17T07:15:25.043Z,937.56
2019-01-17T07:16:25.036Z,937.58
2019-01-17T07:17:25.057Z,937.57
2019-01-17T07:18:25.011Z,937.60
2019-01-17T07:19:25.001Z,937.58
2019-01-17T07:20:24.993Z,937.47
2019-01-17T07:21:24.984Z,937.54
2019-01-17T07:22:24.975Z,937.46
2019-01-17T07:23:24.964Z,937.49
2019-01-17T07:24:24.956Z,937.47
2019-01-17T07:25:24.937Z,937.47
2019-01-17T07:26:24.955Z,937.45
2019-01-17T07:27:24.927Z,937.44
2019-01-17T07:28:24.921Z,937.42
2019-01-17T07:29:24.908Z,937.50
2019-01-17T07:30:24.902Z,937.43
2019-01-17T07:31:24.890Z,937.52
2019-01-17T07:32:24.880Z,937.42
2019-01-17T07:33:24.874Z,937.47
2019-01-17T07:34:24.861Z,937.45
2019-01-17T07:35:24.853Z,937.44
2019-01-17T07:36:24.847Z,937.49
2019-01-17T07:37:24.839Z,937.58
2019-01-17T07:38:24.827Z,937.53
2019-01-17T07:39:24.820Z,937.46
2019-01-17T07:40:24.812Z,937.44
2019-01-17T07:41:24.803Z,937.49
2019-01-17T07:42:24.795Z,937.52
2019-01-17T07:43:24.788Z,937.52
2019-01-17T07:44:24.780Z,937.46
2019-01-17T07:45:24.771Z,937.48
2019-01-17T07:46:24.760Z,937.53
2019-01-17T07:47:24.762Z,937.52
2019-01-17T07:48:24.745Z,937.53
2019-01-17T07:49:24.737Z,937.49
2019-01-17T07:50:24.730Z,937.50
2019-01-17T07:51:24.721Z,937.44
2019-01-17T07:52:24.712Z,937.49
2019-01-17T07:53:24.709Z,937.43
2019-01-17T07:54:24.699Z,937.49
2019-01-17T07:55:24.690Z,937.43
2019-01-17T07:56:24.683Z,937.49
2019-01-17T07:57:24.675Z,937.47
2019-01-17T07:58:24.667Z,937.49
2019-01-17T07:59:24.659Z,937.52
2019-01-17T08:00:24.655Z,937.50
2019-01-17T08:01:24.641Z,937.48
2019-01-17T08:02:24.634Z,937.49
2019-01-17T08:03:24.626Z,937.52
2019-01-17T08:04:24.623Z,937.45
2019-01-17T08:05:24.611Z,937.54
2019-01-17T08:06:24.602Z,937.49
2019-01-17T08:07:24.584Z,937.45
2019-01-17T08:08:24.589Z,937.39
2019-01-17T08:09:24.575Z,937.40
2019-01-17T08:10:24.569Z,937.38
2019-01-17T08:11:24.562Z,937.45
2019-01-17T08:12:24.551Z,937.46
2019-01-17T08:13:24.546Z,937.43
2019-01-17T08:14:24.547Z,937.48
2019-01-17T08:15:24.530Z,937.47
2019-01-17T08:16:24.521Z,937.42
2019-01-17T08:17:24.514Z,937.43
2019-01-17T08:18:24.507Z,937.44
2019-01-17T08:19:24.494Z,937.42
2019-01-17T08:20:24.510Z,937.52
2019-01-17T08:21:24.494Z,937.42
2019-01-17T08:22:24.474Z,937.50
2019-01-17T08:23:24.469Z,937.48
2019-01-17T08:24:24.460Z,937.53
2019-01-17T08:25:24.453Z,937.54
2019-01-17T08:26:24.438Z,937.53
2019-01-17T08:27:24.437Z,937.57
2019-01-17T08:28:24.431Z,937.56
2019-01-17T08:29:24.420Z,937.55
2019-01-17T08:30:24.416Z,937.56
2019-01-17T08:31:24.404Z,937.57
2019-01-17T08:32:24.396Z,937.57
2019-01-17T08:33:24.385Z,937.62
2019-01-17T08:34:28.298Z,937.61
2019-01-17T08:35:24.373Z,937.67
2019-01-17T08:36:24.366Z,937.66
2019-01-17T08:37:24.358Z,937.63
2019-01-17T08:38:24.352Z,937.64
2019-01-17T08:39:24.343Z,937.69
2019-01-17T08:40:24.336Z,937.67
2019-01-17T08:41:24.325Z,937.64
2019-01-17T08:42:24.319Z,937.60
2019-01-17T08:43:24.311Z,937.66
2019-01-17T08:44:24.303Z,937.70
2019-01-17T08:45:24.306Z,937.72
2019-01-17T08:46:24.291Z,937.68
2019-01-17T08:47:24.282Z,937.67
2019-01-17T08:48:24.269Z,937.69
2019-01-17T08:49:24.265Z,937.73
2019-01-17T08:50:24.260Z,937.74
2019-01-17T08:51:24.257Z,937.67
2019-01-17T08:52:24.249Z,937.70
2019-01-17T08:53:24.246Z,937.66
2019-01-17T08:54:24.224Z,937.67
2019-01-17T08:55:24.228Z,937.70
2019-01-17T08:56:24.212Z,937.70
2019-01-17T08:57:24.203Z,937.68
2019-01-17T08:58:24.204Z,937.66
2019-01-17T08:59:24.189Z,937.66
2019-01-17T09:00:24.181Z,937.67
2019-01-17T09:01:24.173Z,937.63
2019-01-17T09:02:24.168Z,937.67
2019-01-17T09:03:24.159Z,937.68
2019-01-17T09:04:24.153Z,937.64
2019-01-17T09:05:24.146Z,937.71
2019-01-17T09:06:24.137Z,937.70
2019-01-17T09:07:24.128Z,937.68
2019-01-17T09:08:24.118Z,937.69
2019-01-17T09:09:24.116Z,937.72
2019-01-17T09:10:24.105Z,937.75
2019-01-17T09:11:24.102Z,937.68
2019-01-17T09:12:24.091Z,937.67
2019-01-17T09:13:24.082Z,937.67
2019-01-17T09:14:24.077Z,937.67
2019-01-17T09:15:24.061Z,937.72
2019-01-17T09:16:26.555Z,937.73
2019-01-17T09:17:24.053Z,937.68
2019-01-17T09:18:24.045Z,937.77
2019-01-17T09:19:24.039Z,937.76
2019-01-17T09:20:24.032Z,937.77
2019-01-17T09:21:24.064Z,937.74
2019-01-17T09:22:24.018Z,937.75
2019-01-17T09:23:24.008Z,937.77
2019-01-17T09:24:24.002Z,937.75
2019-01-17T09:25:23.995Z,937.72
2019-01-17T09:26:23.980Z,937.71
2019-01-17T09:27:23.980Z,937.77
2019-01-17T09:28:23.968Z,937.80
2019-01-17T09:29:23.973Z,937.85
2019-01-17T09:30:23.958Z,937.82
2019-01-17T09:31:23.950Z,937.77
2019-01-17T09:32:23.986Z,937.79
2019-01-17T09:33:23.934Z,937.75
2019-01-17T09:34:23.929Z,937.80
2019-01-17T09:35:23.924Z,937.71
2019-01-17T09:36:23.915Z,937.73
2019-01-17T09:37:23.905Z,937.71
2019-01-17T09:38:23.893Z,937.76
2019-01-17T09:39:23.891Z,937.86
2019-01-17T09:40:23.885Z,937.81
2019-01-17T09:41:23.893Z,937.73
2019-01-17T09:42:23.877Z,937.70
2019-01-17T09:43:23.854Z,937.68
2019-01-17T09:44:23.859Z,937.72
2019-01-17T09:45:23.930Z,937.79
2019-01-17T09:46:23.878Z,937.80
2019-01-17T09:47:23.831Z,937.79
2019-01-17T09:48:23.823Z,937.83
2019-01-17T09:49:23.815Z,937.85
2019-01-17T09:50:23.809Z,937.78
2019-01-17T09:51:23.801Z,937.81
2019-01-17T09:52:23.797Z,937.86
2019-01-17T09:53:23.827Z,937.80
2019-01-17T09:54:23.781Z,937.78
2019-01-17T09:55:23.767Z,937.63
2019-01-17T09:56:23.763Z,937.69
2019-01-17T09:57:23.755Z,937.76
2019-01-17T09:58:23.751Z,937.73
2019-01-17T09:59:23.745Z,937.80
2019-01-17T10:00:23.740Z,937.83
2019-01-17T10:01:23.726Z,937.84
2019-01-17T10:02:23.721Z,937.84
2019-01-17T10:03:23.717Z,937.84
2019-01-17T10:04:26.541Z,937.84
2019-01-17T10:05:23.698Z,937.79
2019-01-17T10:06:23.694Z,937.83
2019-01-17T10:07:23.686Z,937.83
2019-01-17T10:08:23.679Z,937.78
2019-01-17T10:09:23.672Z,937.78
2019-01-17T10:10:24.038Z,937.78
2019-01-17T10:11:23.658Z,937.74
2019-01-17T10:12:23.652Z,937.78
2019-01-17T10:13:23.644Z,937.75
2019-01-17T10:14:23.637Z,937.76
2019-01-17T10:15:23.700Z,937.81
2019-01-17T10:16:23.629Z,937.79
2019-01-17T10:17:23.612Z,937.79
2019-01-17T10:18:23.608Z,937.81
2019-01-17T10:19:23.601Z,937.78
2019-01-17T10:20:23.588Z,937.78
2019-01-17T10:21:23.586Z,937.74
2019-01-17T10:22:23.580Z,937.67
2019-01-17T10:23:23.576Z,937.70
2019-01-17T10:24:23.568Z,937.74
2019-01-17T10:25:23.556Z,937.73
2019-01-17T10:26:23.553Z,937.62
2019-01-17T10:27:23.543Z,937.66
2019-01-17T10:28:23.565Z,937.65
2019-01-17T10:29:23.530Z,937.70
2019-01-17T10:30:23.524Z,937.67
2019-01-17T10:31:23.518Z,937.67
2019-01-17T10:32:23.510Z,937.71
2019-01-17T10:33:23.502Z,937.71
2019-01-17T10:34:23.492Z,937.64
2019-01-17T10:35:23.487Z,937.63
2019-01-17T10:36:23.480Z,937.63
2019-01-17T10:37:23.474Z,937.65
2019-01-17T10:38:23.468Z,937.61
2019-01-17T10:39:23.460Z,937.64
2019-01-17T10:40:23.455Z,937.70
2019-01-17T10:41:23.441Z,937.68
2019-01-17T10:42:23.435Z,937.66
2019-01-17T10:43:23.440Z,937.66
2019-01-17T10:44:23.433Z,937.67
2019-01-17T10:45:23.410Z,937.68
2019-01-17T10:46:23.449Z,937.64
2019-01-17T10:47:23.401Z,937.62
2019-01-17T10:48:23.392Z,937.62
2019-01-17T10:49:23.385Z,937.59
2019-01-17T10:50:23.380Z,937.65
2019-01-17T10:51:23.374Z,937.59
2019-01-17T10:52:23.365Z,937.63
2019-01-17T10:53:23.349Z,937.58
2019-01-17T10:54:23.344Z,937.52
2019-01-17T10:55:23.339Z,937.56
2019-01-17T10:56:27.772Z,937.51
2019-01-17T10:57:23.367Z,937.47
2019-01-17T10:58:23.318Z,937.44
2019-01-17T10:59:23.313Z,937.46
2019-01-17T11:00:23.305Z,937.46
2019-01-17T11:01:23.296Z,937.51
2019-01-17T11:02:23.296Z,937.45
2019-01-17T11:03:23.287Z,937.41
2019-01-17T11:04:23.274Z,937.45
2019-01-17T11:05:23.268Z,937.36
2019-01-17T11:06:23.262Z,937.33
2019-01-17T11:07:23.258Z,937.35
2019-01-17T11:08:23.247Z,937.38
2019-01-17T11:09:23.236Z,937.39
2019-01-17T11:10:23.234Z,937.42
2019-01-17T11:11:23.225Z,937.39
2019-01-17T11:12:23.217Z,937.42
2019-01-17T11:13:23.213Z,937.40
2019-01-17T11:14:23.203Z,937.44
2019-01-17T11:15:23.202Z,937.41
2019-01-17T11:16:23.189Z,937.45
2019-01-17T11:17:23.183Z,937.47
2019-01-17T11:18:23.171Z,937.49
2019-01-17T11:19:23.168Z,937.49
2019-01-17T11:20:23.162Z,937.50
2019-01-17T11:21:23.154Z,937.54
2019-01-17T11:22:23.150Z,937.55
2019-01-17T11:23:23.136Z,937.63
2019-01-17T11:24:23.136Z,937.65
2019-01-17T11:25:23.121Z,937.70
2019-01-17T11:26:23.119Z,937.75
2019-01-17T11:27:23.108Z,937.70
2019-01-17T11:28:23.106Z,937.77
2019-01-17T11:29:23.092Z,937.69
2019-01-17T11:30:23.088Z,937.73
2019-01-17T11:31:23.081Z,937.68
2019-01-17T11:32:23.074Z,937.64
2019-01-17T11:33:23.067Z,937.62
2019-01-17T11:34:23.056Z,937.58
2019-01-17T11:35:23.051Z,937.59
2019-01-17T11:36:23.052Z,937.62
2019-01-17T11:37:23.037Z,937.59
2019-01-17T11:38:23.025Z,937.62
2019-01-17T11:39:23.023Z,937.55
2019-01-17T11:40:23.015Z,937.55
2019-01-17T11:41:23.005Z,937.58
2019-01-17T11:42:22.997Z,937.53
2019-01-17T11:43:22.988Z,937.56
2019-01-17T11:44:22.980Z,937.49
2019-01-17T11:45:22.974Z,937.50
2019-01-17T11:46:22.963Z,937.52
2019-01-17T11:47:22.993Z,937.51
2019-01-17T11:48:24.882Z,937.52
2019-01-17T11:49:22.941Z,937.47
2019-01-17T11:50:22.934Z,937.49
2019-01-17T11:51:22.929Z,937.52
2019-01-17T11:52:22.919Z,937.56
2019-01-17T11:53:22.912Z,937.50
2019-01-17T11:54:22.902Z,937.51
2019-01-17T11:55:22.895Z,937.52
2019-01-17T11:56:22.887Z,937.57
2019-01-17T11:57:22.883Z,937.53
2019-01-17T11:58:22.876Z,937.52
2019-01-17T11:59:22.864Z,937.60
2019-01-17T12:00:22.859Z,937.60
2019-01-17T12:01:22.848Z,937.57
2019-01-17T12:02:22.840Z,937.53
2019-01-17T12:03:22.839Z,937.56
2019-01-17T12:04:22.825Z,937.52
2019-01-17T12:05:22.820Z,937.55
2019-01-17T12:06:22.808Z,937.57
2019-01-17T12:07:22.803Z,937.54
2019-01-17T12:08:22.799Z,937.57
2019-01-17T12:09:22.789Z,937.52
2019-01-17T12:10:22.769Z,937.54
2019-01-17T12:11:22.773Z,937.53
2019-01-17T12:12:22.767Z,937.52
2019-01-17T12:13:22.755Z,937.56
2019-01-17T12:14:24.124Z,937.45
2019-01-17T12:15:22.741Z,937.47
2019-01-17T12:16:22.732Z,937.49
2019-01-17T12:17:22.728Z,937.46
2019-01-17T12:18:22.724Z,937.49
2019-01-17T12:19:22.708Z,937.49
2019-01-17T12:20:22.703Z,937.44
2019-01-17T12:21:22.698Z,937.43
2019-01-17T12:22:22.685Z,937.45
2019-01-17T12:23:22.678Z,937.37
2019-01-17T12:24:22.672Z,937.42
2019-01-17T12:25:22.665Z,937.37
2019-01-17T12:26:22.655Z,937.39
2019-01-17T12:27:22.649Z,937.38
2019-01-17T12:28:22.641Z,937.32